createdAt,value
2023-11-23T00:02:10.966Z,4.60
2023-11-23T00:04:39.654Z,5.15
2023-11-23T00:07:08.449Z,4.90
2023-11-23T00:09:38.481Z,4.88
2023-11-23T00:12:08.131Z,4.75
2023-11-23T00:14:37.288Z,4.57
2023-11-23T00:17:06.248Z,4.60
2023-11-23T00:19:34.808Z,4.15
2023-11-23T00:22:04.072Z,4.32
2023-11-23T00:24:33.640Z,4.15
2023-11-23T00:27:04.629Z,4.10
2023-11-23T00:29:33.185Z,4.03
2023-11-23T00:32:02.386Z,4.47
2023-11-23T00:34:31.004Z,4.22
2023-11-23T00:36:59.958Z,4.22
2023-11-23T00:39:28.842Z,3.97
2023-11-23T00:41:57.476Z,4.70
2023-11-23T00:44:27.657Z,4.90
2023-11-23T00:46:56.414Z,4.55
2023-11-23T00:49:25.048Z,4.35
2023-11-23T00:51:53.588Z,4.78
2023-11-23T00:54:22.919Z,4.95
2023-11-23T00:56:52.015Z,5.38
2023-11-23T00:59:20.664Z,5.15
2023-11-23T01:01:50.940Z,4.43
2023-11-23T01:04:19.631Z,4.88
2023-11-23T01:06:48.215Z,4.65
2023-11-23T01:09:17.057Z,3.95
2023-11-23T01:11:45.651Z,4.63
2023-11-23T01:14:14.558Z,4.07
2023-11-23T01:16:43.201Z,4.30
2023-11-23T01:19:13.434Z,4.10
2023-11-23T01:21:42.183Z,4.18
2023-11-23T01:24:13.239Z,4.45
2023-11-23T01:26:42.372Z,4.10
2023-11-23T01:29:11.129Z,3.90
2023-11-23T01:31:39.657Z,4.22
2023-11-23T01:34:08.305Z,4.20
2023-11-23T01:36:38.449Z,4.72
2023-11-23T01:39:08.472Z,4.50
2023-11-23T01:41:37.247Z,4.18
2023-11-23T01:44:07.089Z,4.30
2023-11-23T01:46:35.954Z,4.70
2023-11-23T01:49:06.436Z,4.90
2023-11-23T01:51:35.418Z,4.60
2023-11-23T01:54:05.763Z,4.57
2023-11-23T01:56:34.905Z,4.18
2023-11-23T01:59:06.124Z,4.65
2023-11-23T02:01:34.810Z,4.15
2023-11-23T02:04:04.850Z,3.97
2023-11-23T02:06:33.470Z,3.92
2023-11-23T02:09:02.423Z,4.63
2023-11-23T02:11:33.941Z,4.80
2023-11-23T02:14:02.993Z,4.53
2023-11-23T02:16:31.727Z,4.47
2023-11-23T02:19:00.356Z,5.13
2023-11-23T02:21:29.109Z,4.53
2023-11-23T02:23:57.863Z,4.63
2023-11-23T02:26:29.256Z,4.00
2023-11-23T02:28:58.378Z,4.43
2023-11-23T02:31:27.240Z,4.15
2023-11-23T02:33:56.060Z,5.03
2023-11-23T02:36:24.770Z,4.22
2023-11-23T02:38:53.328Z,4.10
2023-11-23T02:41:22.192Z,3.83
2023-11-23T02:43:52.285Z,4.20
2023-11-23T02:46:21.107Z,4.28
2023-11-23T02:48:49.786Z,5.00
2023-11-23T02:51:19.323Z,4.43
2023-11-23T02:53:49.530Z,4.38
2023-11-23T02:56:18.308Z,4.05
2023-11-23T02:58:47.974Z,3.90
2023-11-23T03:01:19.948Z,3.67
2023-11-23T03:03:48.658Z,4.38
2023-11-23T03:06:17.583Z,3.47
2023-11-23T03:08:46.620Z,3.65
2023-11-23T03:11:20.714Z,3.83
2023-11-23T03:13:50.821Z,3.92
2023-11-23T03:16:20.835Z,3.83
2023-11-23T03:18:49.574Z,4.63
2023-11-23T03:21:18.331Z,4.45
2023-11-23T03:23:47.668Z,3.83
2023-11-23T03:26:16.678Z,3.92
2023-11-23T03:28:45.236Z,3.72
2023-11-23T03:31:13.839Z,4.13
2023-11-23T03:33:45.282Z,3.17
2023-11-23T03:36:14.013Z,4.05
2023-11-23T03:38:43.349Z,3.78
2023-11-23T03:41:12.075Z,3.50
2023-11-23T03:43:40.642Z,3.58
2023-11-23T03:46:09.416Z,4.18
2023-11-23T03:48:38.012Z,3.92
2023-11-23T03:51:08.673Z,3.70
2023-11-23T03:53:37.396Z,3.55
2023-11-23T03:56:06.915Z,3.20
2023-11-23T03:58:35.505Z,3.90
2023-11-23T04:01:06.121Z,3.45
2023-11-23T04:03:34.752Z,3.80
2023-11-23T04:06:03.584Z,4.10
2023-11-23T04:08:32.565Z,3.50
2023-11-23T04:11:01.160Z,3.60
2023-11-23T04:13:29.841Z,4.35
2023-11-23T04:15:58.430Z,4.53
2023-11-23T04:18:27.158Z,5.25
2023-11-23T04:20:55.914Z,4.90
2023-11-23T04:23:24.579Z,5.80
2023-11-23T04:25:54.608Z,5.10
2023-11-23T04:28:23.341Z,5.25
2023-11-23T04:30:51.938Z,4.82
2023-11-23T04:33:24.116Z,4.68
2023-11-23T04:35:53.257Z,5.00
2023-11-23T04:38:21.860Z,4.85
2023-11-23T04:40:50.507Z,4.55
2023-11-23T04:43:20.620Z,4.60
2023-11-23T04:45:49.255Z,5.05
2023-11-23T04:48:18.062Z,5.20
2023-11-23T04:50:46.831Z,5.00
2023-11-23T04:53:15.467Z,5.18
2023-11-23T04:55:44.522Z,4.57
2023-11-23T04:58:13.243Z,4.43
2023-11-23T05:00:44.456Z,5.75
2023-11-23T05:03:13.459Z,5.65
2023-11-23T05:05:42.076Z,5.93
2023-11-23T05:08:10.820Z,7.47
2023-11-23T05:10:39.415Z,6.95
2023-11-23T05:13:07.994Z,5.95
2023-11-23T05:15:36.610Z,5.65
2023-11-23T05:18:07.314Z,5.20
2023-11-23T05:20:36.891Z,5.60
2023-11-23T05:23:05.430Z,5.57
2023-11-23T05:25:34.721Z,5.68
2023-11-23T05:28:03.386Z,5.78
2023-11-23T05:30:33.909Z,5.50
2023-11-23T05:33:02.802Z,5.13
2023-11-23T05:35:32.870Z,5.35
2023-11-23T05:38:01.525Z,5.45
2023-11-23T05:40:30.229Z,5.60
2023-11-23T05:43:03.535Z,6.18
2023-11-23T05:45:35.318Z,6.03
2023-11-23T05:48:04.391Z,5.53
2023-11-23T05:50:34.481Z,5.82
2023-11-23T05:53:03.397Z,5.47
2023-11-23T05:55:32.156Z,5.90
2023-11-23T05:58:00.883Z,5.90
2023-11-23T06:00:29.531Z,6.00
2023-11-23T06:02:58.311Z,6.65
2023-11-23T06:05:27.172Z,6.50
2023-11-23T06:07:57.284Z,7.38
2023-11-23T06:10:28.041Z,7.43
2023-11-23T06:12:57.814Z,7.65
2023-11-23T06:15:26.434Z,6.88
2023-11-23T06:18:07.087Z,7.28
2023-11-23T06:20:41.971Z,7.28
2023-11-23T06:23:12.551Z,8.02
2023-11-23T06:25:41.091Z,8.27
2023-11-23T06:28:15.153Z,7.70
2023-11-23T06:30:46.455Z,7.55
2023-11-23T06:33:15.520Z,8.02
2023-11-23T06:35:44.246Z,7.97
2023-11-23T06:38:14.291Z,7.80
2023-11-23T06:40:42.851Z,8.15
2023-11-23T06:43:11.655Z,7.47
2023-11-23T06:45:40.250Z,9.05
2023-11-23T06:48:08.969Z,8.57
2023-11-23T06:50:37.581Z,8.82
2023-11-23T06:53:06.164Z,8.77
2023-11-23T06:55:36.265Z,8.30
2023-11-23T06:58:08.614Z,8.23
2023-11-23T07:00:37.494Z,8.27
2023-11-23T07:03:06.112Z,8.02
2023-11-23T07:05:34.945Z,7.80
2023-11-23T07:08:03.687Z,8.45
2023-11-23T07:10:35.355Z,8.77
2023-11-23T07:13:05.588Z,8.10
2023-11-23T07:15:34.446Z,8.02
2023-11-23T07:18:03.150Z,8.10
2023-11-23T07:20:31.925Z,7.75
2023-11-23T07:23:00.930Z,8.85
2023-11-23T07:25:30.857Z,8.10
2023-11-23T07:27:59.657Z,8.82
2023-11-23T07:30:29.802Z,8.85
2023-11-23T07:32:58.542Z,8.80
2023-11-23T07:35:27.347Z,8.02
2023-11-23T07:37:56.776Z,8.15
2023-11-23T07:40:25.588Z,7.72
2023-11-23T07:42:55.324Z,8.35
2023-11-23T07:45:24.429Z,9.00
2023-11-23T07:47:54.499Z,8.65
2023-11-23T07:50:23.185Z,8.02
2023-11-23T07:52:51.992Z,8.13
2023-11-23T07:55:22.028Z,7.63
2023-11-23T07:57:50.983Z,7.78
2023-11-23T08:00:22.002Z,7.45
2023-11-23T08:02:50.837Z,7.30
2023-11-23T08:05:20.921Z,7.50
2023-11-23T08:07:51.407Z,7.28
2023-11-23T08:10:22.029Z,7.53
2023-11-23T08:12:50.845Z,7.43
2023-11-23T08:15:21.117Z,7.30
2023-11-23T08:17:58.506Z,7.28
2023-11-23T08:20:35.072Z,7.65
2023-11-23T08:23:05.507Z,7.82
2023-11-23T08:25:34.118Z,8.55
2023-11-23T08:28:03.457Z,7.97
2023-11-23T08:30:32.174Z,7.80
2023-11-23T08:33:01.199Z,7.03
2023-11-23T08:35:30.455Z,7.53
2023-11-23T08:38:00.542Z,7.50
2023-11-23T08:40:29.920Z,7.80
2023-11-23T08:42:58.549Z,7.75
2023-11-23T08:45:27.685Z,8.10
2023-11-23T08:47:56.410Z,8.18
2023-11-23T08:50:25.109Z,7.10
2023-11-23T08:52:53.910Z,8.25
2023-11-23T08:55:23.924Z,8.50
2023-11-23T08:57:53.682Z,7.60
2023-11-23T09:00:25.293Z,7.55
2023-11-23T09:02:54.950Z,7.22
2023-11-23T09:05:24.405Z,7.50
2023-11-23T09:07:53.109Z,7.22
2023-11-23T09:10:24.713Z,7.85
2023-11-23T09:12:53.341Z,7.85
2023-11-23T09:15:23.345Z,7.85
2023-11-23T09:17:53.075Z,8.27
2023-11-23T09:20:21.706Z,7.55
2023-11-23T09:22:50.260Z,8.25
2023-11-23T09:25:19.731Z,8.60
2023-11-23T09:27:51.172Z,8.05
2023-11-23T09:30:20.043Z,8.02
2023-11-23T09:32:48.787Z,7.07
2023-11-23T09:35:17.544Z,6.93
2023-11-23T09:37:46.143Z,6.97
2023-11-23T09:40:20.119Z,6.65
2023-11-23T09:42:50.782Z,8.10
2023-11-23T09:45:24.230Z,7.93
2023-11-23T09:47:55.206Z,7.82
2023-11-23T09:50:23.964Z,7.32
2023-11-23T09:52:55.683Z,7.40
2023-11-23T09:55:24.886Z,6.68
2023-11-23T09:57:54.825Z,6.95
2023-11-23T10:00:23.944Z,6.15
2023-11-23T10:02:57.186Z,7.00
2023-11-23T10:05:27.194Z,6.75
2023-11-23T10:07:55.937Z,6.93
2023-11-23T10:10:24.669Z,7.72
2023-11-23T10:12:55.835Z,5.72
2023-11-23T10:15:26.405Z,4.75
2023-11-23T10:17:55.216Z,4.00
2023-11-23T10:20:24.118Z,3.15
2023-11-23T10:22:52.737Z,3.83
2023-11-23T10:25:27.294Z,3.33
2023-11-23T10:27:59.682Z,3.72
2023-11-23T10:30:29.033Z,3.55
2023-11-23T10:32:59.150Z,3.42
2023-11-23T10:35:33.633Z,3.42
2023-11-23T10:38:02.954Z,3.00
2023-11-23T10:40:32.058Z,3.70
2023-11-23T10:43:03.827Z,3.65
2023-11-23T10:45:35.625Z,3.47
2023-11-23T10:48:06.461Z,3.20
2023-11-23T10:50:35.625Z,3.35
2023-11-23T10:53:05.450Z,3.40
2023-11-23T10:55:34.376Z,3.55
2023-11-23T10:58:08.286Z,3.92
2023-11-23T11:00:38.675Z,3.92
2023-11-23T11:03:11.090Z,3.40
2023-11-23T11:05:47.056Z,3.35
2023-11-23T11:08:20.417Z,3.40
2023-11-23T11:10:51.531Z,3.40
2023-11-23T11:13:23.888Z,3.50
2023-11-23T11:15:54.553Z,3.20
2023-11-23T11:18:23.961Z,3.38
2023-11-23T11:21:09.737Z,2.83
2023-11-23T11:23:40.092Z,3.00
2023-11-23T11:26:12.811Z,3.40
2023-11-23T11:28:44.001Z,3.35
2023-11-23T11:31:14.958Z,3.47
2023-11-23T11:33:43.976Z,3.63
2023-11-23T11:36:14.467Z,4.00
2023-11-23T11:38:44.408Z,5.80
2023-11-23T11:41:13.581Z,5.50
2023-11-23T11:43:45.540Z,4.93
2023-11-23T11:46:14.493Z,5.80
2023-11-23T11:48:43.056Z,6.13
2023-11-23T11:51:13.024Z,6.30
2023-11-23T11:53:43.118Z,6.10
2023-11-23T11:56:13.052Z,6.43
2023-11-23T11:58:41.360Z,6.55
2023-11-23T12:01:10.798Z,7.10
2023-11-23T12:03:39.025Z,7.13
2023-11-23T12:06:08.143Z,7.90
2023-11-23T12:08:36.892Z,6.85
2023-11-23T12:11:07.725Z,6.80
2023-11-23T12:13:37.147Z,7.07
2023-11-23T12:16:05.627Z,6.35
2023-11-23T12:18:37.122Z,7.07
2023-11-23T12:21:05.722Z,7.18
2023-11-23T12:23:42.686Z,8.00
2023-11-23T12:26:11.573Z,7.45
2023-11-23T12:28:40.133Z,7.45
2023-11-23T12:31:08.881Z,7.53
2023-11-23T12:33:39.134Z,7.40
2023-11-23T12:36:08.512Z,7.65
2023-11-23T12:38:36.909Z,7.65
2023-11-23T12:41:05.053Z,7.60
2023-11-23T12:43:33.482Z,7.75
2023-11-23T12:46:01.809Z,8.10
2023-11-23T12:48:30.365Z,6.88
2023-11-23T12:51:00.666Z,8.20
2023-11-23T12:53:30.561Z,7.47
2023-11-23T12:55:59.095Z,8.05
2023-11-23T12:58:27.347Z,8.05
2023-11-23T13:00:56.647Z,7.50
2023-11-23T13:03:24.930Z,7.60
2023-11-23T13:05:54.415Z,8.52
2023-11-23T13:08:24.925Z,7.85
2023-11-23T13:10:53.288Z,7.97
2023-11-23T13:13:21.564Z,7.97
2023-11-23T13:15:50.087Z,8.35
2023-11-23T13:18:18.464Z,8.00
2023-11-23T13:20:46.909Z,8.20
2023-11-23T13:23:16.040Z,7.93
2023-11-23T13:25:47.118Z,9.02
2023-11-23T13:28:15.235Z,7.90
2023-11-23T13:30:44.176Z,8.40
2023-11-23T13:33:21.451Z,7.97
2023-11-23T13:35:50.205Z,8.55
2023-11-23T13:38:18.872Z,8.00
2023-11-23T13:40:50.223Z,7.90
2023-11-23T13:43:19.830Z,7.65
2023-11-23T13:45:51.461Z,6.45
2023-11-23T13:48:21.635Z,7.10
2023-11-23T13:50:51.345Z,7.20
2023-11-23T13:53:20.065Z,7.03
2023-11-23T13:55:51.272Z,6.97
2023-11-23T13:58:20.706Z,6.57
2023-11-23T14:00:49.323Z,7.22
2023-11-23T14:03:18.250Z,7.25
2023-11-23T14:05:47.387Z,7.47
2023-11-23T14:08:16.207Z,7.85
2023-11-23T14:10:45.269Z,8.40
2023-11-23T14:13:15.353Z,8.52
2023-11-23T14:15:45.305Z,7.28
2023-11-23T14:18:14.938Z,7.28
2023-11-23T14:20:44.999Z,6.65
2023-11-23T14:23:14.627Z,6.43
2023-11-23T14:25:43.600Z,5.47
2023-11-23T14:28:16.444Z,4.20
2023-11-23T14:30:47.297Z,2.03
2023-11-23T14:33:16.860Z,2.15
2023-11-23T14:35:52.527Z,2.13
2023-11-23T14:38:21.349Z,2.03
2023-11-23T14:40:50.729Z,1.77
2023-11-23T14:43:20.052Z,1.88
2023-11-23T14:45:52.065Z,2.40
2023-11-23T14:48:20.994Z,2.03
2023-11-23T14:50:50.320Z,2.22
2023-11-23T14:53:18.542Z,2.10
2023-11-23T14:55:47.784Z,1.83
2023-11-23T14:58:16.338Z,2.05
2023-11-23T15:00:44.975Z,2.00
2023-11-23T15:03:15.141Z,2.25
2023-11-23T15:05:43.877Z,1.90
2023-11-23T15:08:12.677Z,1.88
2023-11-23T15:10:41.457Z,2.00
2023-11-23T15:13:10.051Z,2.10
2023-11-23T15:15:38.639Z,2.10
2023-11-23T15:18:08.917Z,2.35
2023-11-23T15:20:39.303Z,2.20
2023-11-23T15:23:11.568Z,2.03
2023-11-23T15:25:40.179Z,2.03
2023-11-23T15:28:11.869Z,2.00
2023-11-23T15:30:42.148Z,2.10
2023-11-23T15:33:11.584Z,2.38
2023-11-23T15:35:42.819Z,2.28
2023-11-23T15:38:11.710Z,2.10
2023-11-23T15:40:40.312Z,2.03
2023-11-23T15:43:09.382Z,1.80
2023-11-23T15:45:38.051Z,2.00
2023-11-23T15:48:07.343Z,2.50
2023-11-23T15:50:35.949Z,2.50
2023-11-23T15:53:05.921Z,2.22
2023-11-23T15:55:37.637Z,2.47
2023-11-23T15:58:06.355Z,2.45
2023-11-23T16:00:35.298Z,2.20
2023-11-23T16:03:04.069Z,1.90
2023-11-23T16:05:32.844Z,2.10
2023-11-23T16:08:01.820Z,2.38
2023-11-23T16:10:31.872Z,2.30
2023-11-23T16:13:00.568Z,2.10
2023-11-23T16:15:29.267Z,2.17
2023-11-23T16:17:59.365Z,2.38
2023-11-23T16:20:28.462Z,2.40
2023-11-23T16:22:57.080Z,2.28
2023-11-23T16:25:27.392Z,2.10
2023-11-23T16:27:57.583Z,2.65
2023-11-23T16:30:26.375Z,2.17
2023-11-23T16:32:56.069Z,2.40
2023-11-23T16:35:25.954Z,2.00
2023-11-23T16:37:55.688Z,2.55
2023-11-23T16:40:24.361Z,2.67
2023-11-23T16:42:54.291Z,2.95
2023-11-23T16:45:24.389Z,2.55
2023-11-23T16:47:54.532Z,2.30
2023-11-23T16:50:23.376Z,2.47
2023-11-23T16:52:52.005Z,2.50
2023-11-23T16:55:20.766Z,2.35
2023-11-23T16:57:51.928Z,2.47
2023-11-23T17:00:20.951Z,2.20
2023-11-23T17:02:51.050Z,2.35
2023-11-23T17:05:23.397Z,2.40
2023-11-23T17:07:52.028Z,2.45
2023-11-23T17:10:21.530Z,2.67
2023-11-23T17:12:50.112Z,2.60
2023-11-23T17:15:20.046Z,2.80
2023-11-23T17:17:50.373Z,2.50
2023-11-23T17:20:19.189Z,2.88
2023-11-23T17:22:49.004Z,3.17
2023-11-23T17:25:17.749Z,4.13
2023-11-23T17:27:48.655Z,3.50
2023-11-23T17:30:18.954Z,4.82
2023-11-23T17:32:47.697Z,4.53
2023-11-23T17:35:19.922Z,4.50
2023-11-23T17:37:48.900Z,4.22
2023-11-23T17:40:17.655Z,5.00
2023-11-23T17:42:46.250Z,4.93
2023-11-23T17:45:14.902Z,7.10
2023-11-23T17:47:45.450Z,7.05
2023-11-23T17:50:15.525Z,7.55
2023-11-23T17:52:46.020Z,6.75
2023-11-23T17:55:15.369Z,6.63
2023-11-23T17:57:44.001Z,7.57
2023-11-23T18:00:14.274Z,8.32
2023-11-23T18:02:44.169Z,8.30
2023-11-23T18:05:14.304Z,9.00
2023-11-23T18:07:43.824Z,7.47
2023-11-23T18:10:16.150Z,7.50
2023-11-23T18:12:45.880Z,8.68
2023-11-23T18:15:15.324Z,7.97
2023-11-23T18:17:44.619Z,8.27
2023-11-23T18:20:16.891Z,8.30
2023-11-23T18:22:45.486Z,7.25
2023-11-23T18:25:15.639Z,8.25
2023-11-23T18:27:44.397Z,6.65
2023-11-23T18:30:15.676Z,6.65
2023-11-23T18:32:44.950Z,6.00
2023-11-23T18:35:13.741Z,5.90
2023-11-23T18:37:42.637Z,4.97
2023-11-23T18:40:15.160Z,5.50
2023-11-23T18:42:47.286Z,6.22
2023-11-23T18:45:16.636Z,6.72
2023-11-23T18:47:45.474Z,6.53
2023-11-23T18:50:15.200Z,6.68
2023-11-23T18:52:44.117Z,7.88
2023-11-23T18:55:16.047Z,8.93
2023-11-23T18:57:47.616Z,9.27
2023-11-23T19:00:16.720Z,9.00
2023-11-23T19:02:45.469Z,9.30
2023-11-23T19:05:15.339Z,7.72
2023-11-23T19:07:44.386Z,7.45
2023-11-23T19:10:15.355Z,8.73
2023-11-23T19:12:46.181Z,8.55
2023-11-23T19:15:16.514Z,5.72
2023-11-23T19:17:45.619Z,4.53
2023-11-23T19:20:15.204Z,3.47
2023-11-23T19:22:44.330Z,4.28
2023-11-23T19:25:14.064Z,4.03
2023-11-23T19:27:43.378Z,3.75
2023-11-23T19:30:13.928Z,3.67
2023-11-23T19:32:46.257Z,3.85
2023-11-23T19:35:19.538Z,3.67
2023-11-23T19:37:49.529Z,3.63
2023-11-23T19:40:18.990Z,3.70
2023-11-23T19:42:48.288Z,3.97
2023-11-23T19:45:18.347Z,4.03
2023-11-23T19:47:49.080Z,3.95
2023-11-23T19:50:19.071Z,3.47
2023-11-23T19:52:48.491Z,3.97
2023-11-23T19:55:19.175Z,3.20
2023-11-23T19:57:48.240Z,3.80
2023-11-23T20:00:18.576Z,3.83
2023-11-23T20:02:48.815Z,3.65
2023-11-23T20:05:18.144Z,3.53
2023-11-23T20:07:46.851Z,3.75
2023-11-23T20:10:15.626Z,3.40
2023-11-23T20:12:44.252Z,3.20
2023-11-23T20:15:13.292Z,3.00
2023-11-23T20:17:42.044Z,3.33
2023-11-23T20:20:13.733Z,3.42
2023-11-23T20:22:42.338Z,3.08
2023-11-23T20:25:11.043Z,3.22
2023-11-23T20:27:40.102Z,3.40
2023-11-23T20:30:09.975Z,2.80
2023-11-23T20:32:38.557Z,2.92
2023-11-23T20:35:10.806Z,3.00
2023-11-23T20:37:41.049Z,3.17
2023-11-23T20:40:10.647Z,2.95
2023-11-23T20:42:40.166Z,2.60
2023-11-23T20:45:10.398Z,2.70
2023-11-23T20:47:39.325Z,2.60
2023-11-23T20:50:09.866Z,2.70
2023-11-23T20:52:40.668Z,2.60
2023-11-23T20:55:16.540Z,2.75
2023-11-23T20:57:46.338Z,2.30
2023-11-23T21:00:17.249Z,2.67
2023-11-23T21:02:46.852Z,3.00
2023-11-23T21:05:17.220Z,2.88
2023-11-23T21:07:46.478Z,2.55
2023-11-23T21:10:18.967Z,2.80
2023-11-23T21:12:47.557Z,2.80
2023-11-23T21:15:16.826Z,2.42
2023-11-23T21:17:45.994Z,2.40
2023-11-23T21:20:15.074Z,2.58
2023-11-23T21:22:43.778Z,2.53
2023-11-23T21:25:12.394Z,2.90
2023-11-23T21:27:43.563Z,2.20
2023-11-23T21:30:13.045Z,2.30
2023-11-23T21:32:41.702Z,2.58
2023-11-23T21:35:11.302Z,2.17
2023-11-23T21:37:40.157Z,2.10
2023-11-23T21:40:10.962Z,1.80
2023-11-23T21:42:39.663Z,2.42
2023-11-23T21:45:10.362Z,2.25
2023-11-23T21:47:40.099Z,1.95
2023-11-23T21:50:10.141Z,1.75
2023-11-23T21:52:40.367Z,1.95
2023-11-23T21:55:09.928Z,1.73
2023-11-23T21:57:38.779Z,1.80
2023-11-23T22:00:10.580Z,1.83
2023-11-23T22:02:41.037Z,1.45
2023-11-23T22:05:10.230Z,1.60
2023-11-23T22:07:38.822Z,1.67
2023-11-23T22:10:09.483Z,1.50
2023-11-23T22:12:38.062Z,1.60
2023-11-23T22:15:08.067Z,1.50
2023-11-23T22:17:38.817Z,1.40
2023-11-23T22:20:09.546Z,1.38
2023-11-23T22:22:38.687Z,1.27
2023-11-23T22:25:10.416Z,1.33
2023-11-23T22:27:40.491Z,1.10
2023-11-23T22:30:10.412Z,1.40
2023-11-23T22:32:45.639Z,1.30
2023-11-23T22:35:15.930Z,1.30
2023-11-23T22:37:45.481Z,1.30
2023-11-23T22:40:15.867Z,1.17
2023-11-23T22:42:45.074Z,1.30
2023-11-23T22:45:14.485Z,0.90
2023-11-23T22:47:44.477Z,1.00
2023-11-23T22:50:14.231Z,1.17
2023-11-23T22:52:42.844Z,1.30
2023-11-23T22:55:11.551Z,1.00
2023-11-23T22:57:40.160Z,1.00
2023-11-23T23:00:25.895Z,0.90
2023-11-23T23:02:56.569Z,1.20
2023-11-23T23:05:26.443Z,1.23
2023-11-23T23:07:57.778Z,0.90
2023-11-23T23:10:28.339Z,1.10
2023-11-23T23:12:57.858Z,1.20
2023-11-23T23:15:26.885Z,1.27
2023-11-23T23:17:57.253Z,1.13
2023-11-23T23:20:26.518Z,1.38
2023-11-23T23:22:56.040Z,0.90
2023-11-23T23:25:24.815Z,1.00
2023-11-23T23:27:53.675Z,1.00
2023-11-23T23:30:22.473Z,1.13
2023-11-23T23:32:51.116Z,0.85
2023-11-23T23:35:21.378Z,1.13
2023-11-23T23:37:49.976Z,1.02
2023-11-23T23:40:19.007Z,1.42
2023-11-23T23:42:47.635Z,1.40
2023-11-23T23:45:16.230Z,1.25
2023-11-23T23:47:46.204Z,1.40
2023-11-23T23:50:15.005Z,1.20
2023-11-23T23:52:45.323Z,1.30
2023-11-23T23:55:14.707Z,1.30
2023-11-23T23:57:44.655Z,1.40
